ADDS METAR Data INFO
IDs: Format: Raw Decoded Include TAF

Data at: 1934 UTC 19 Jul 2018

KFHB 191915Z AUTO 20003KT 7SM VCTS SCT005 BKN034 OVC055 25/23 A2993 RMK AO2 LTG DSNT ALQS T02460231
KFHB 191855Z AUTO 19010G17KT 1SM TS BKN006 OVC021 25/23 A2994 RMK AO2 LTG DSNT ALQS T02460229
KFHB 191835Z AUTO 16005KT 10SM TS SCT013 SCT024 BKN030 26/24 A2993 RMK AO2 LTG DSNT ALQS T02550237
KFHB 191815Z AUTO 00000KT 1 1/2SM TS BKN007 BKN011 OVC022 24/23 A2995 RMK AO2 LTG DSNT ALQS T02420225
KFHB 191755Z AUTO 22007KT 1 3/4SM TS BKN007 BKN015 OVC022 26/24 A2996 RMK AO2 LTG DSNT ALQS T02570237 10320 20257
KFHB 191735Z AUTO 28011KT 5SM TS SCT013 BKN032 OVC042 27/24 A2993 RMK AO2 LTG DSNT ALQS T02670237
KFHB 191715Z AUTO 16009KT 10SM TS SCT024 BKN031 OVC038 29/24 A2993 RMK AO2 LTG DSNT ALQS T02900238
KFHB 191655Z AUTO 16007KT 10SM VCTS SCT031 BKN035 BKN042 30/24 A2993 RMK AO2 LTG DSNT SW THRU NE T03010238
KFHB 191635Z AUTO 19006KT 10SM CLR 32/23 A2994 RMK AO2 LTG DSNT ALQS T03160232
KFHB 191615Z AUTO 22009G14KT 10SM SCT028 SCT042 SCT080 32/24 A2993 RMK AO2 LTG DSNT N NE AND SW T03150237
KFHB 191555Z AUTO 23007KT 10SM VCTS SCT026 BKN032 OVC075 31/24 A2994 RMK AO2 LTG DSNT NE AND NW T03100239
KFHB 191535Z AUTO 24008KT 10SM SCT045 SCT075 31/24 A2994 RMK AO2 LTG DSNT NE AND S T03090243
KFHB 191515Z AUTO 23009KT 10SM SCT021 SCT027 30/24 A2995 RMK AO2 LTG DSNT NE T03000241
KFHB 191455Z AUTO 21003KT 10SM SCT013 SCT019 BKN024 29/24 A2995 RMK AO2 T02900244
KFHB 191435Z AUTO 19005KT 10SM SCT013 SCT021 BKN034 29/25 A2995 RMK AO2 LTG DSNT NE AND E T02880250
KFHB 191415Z AUTO 20005KT 10SM SCT013 SCT037 BKN050 28/25 A2995 RMK AO2 LTG DSNT NE T02820252
KFHB 191355Z AUTO 22006KT 7SM VCTS SCT012 BKN039 OVC050 27/25 A2996 RMK AO2 LTG DSNT NE T02740249
KFHB 191335Z AUTO 22008KT 10SM BKN012 BKN044 OVC060 28/25 A2996 RMK AO2 T02770249
KFHB 191315Z AUTO 22006KT 10SM SCT034 SCT045 OVC060 27/25 A2996 RMK AO2 T02710250
KFHB 191255Z AUTO 20006KT 4SM SCT016 BKN042 OVC055 27/25 A2996 RMK AO2 T02680245
KFHB 191235Z AUTO 20007KT 10SM SCT043 BKN050 OVC075 27/25 A2995 RMK AO2 LTG DSNT N T02690245
KFHB 191215Z AUTO 19004KT 10SM SCT043 BKN070 OVC075 27/25 A2995 RMK AO2 LTG DSNT SW AND W T02680247
KFHB 191155Z AUTO 20004KT 10SM BKN043 OVC048 27/25 A2995 RMK AO2 T02650246 10269 20260
KFHB 191135Z AUTO 22008KT 10SM BKN050 BKN070 OVC110 27/25 A2994 RMK AO2 T02680246
KFHB 191115Z AUTO 19003KT 10SM BKN060 BKN070 OVC110 26/25 A2994 RMK AO2 T02630245
KFHB 191055Z AUTO 19004KT 10SM SCT049 BKN060 26/24 A2994 RMK AO2 T02600242
KFHB 191035Z AUTO 18003KT 10SM SCT049 SCT055 26/24 A2994 RMK AO2 T02600241
KFHB 191015Z AUTO 20004KT 10SM CLR 26/24 A2994 RMK AO2 T02600241
KFHB 190955Z AUTO 19004KT 10SM CLR 26/24 A2993 RMK AO2 T02610241
KFHB 190935Z AUTO 21005KT 10SM CLR 26/24 A2992 RMK AO2 T02610241
KFHB 190915Z AUTO 21006KT 10SM CLR 26/24 A2992 RMK AO2 T02630241
KFHB 190855Z AUTO 20007KT 10SM CLR 27/24 A2992 RMK AO2 T02650240
KFHB 190835Z AUTO 22007KT 10SM CLR 27/24 A2991 RMK AO2 T02650240
KFHB 190815Z AUTO 22008KT 10SM CLR 27/24 A2991 RMK AO2 T02650240
KFHB 190755Z AUTO 22006KT 10SM CLR 27/24 A2991 RMK AO2 T02650241
KFHB 190735Z AUTO 21006KT 10SM CLR 27/24 A2991 RMK AO2 T02670241
KFHB 190715Z AUTO 22006KT 10SM CLR 27/24 A2992 RMK AO2 T02670240
KFHB 190655Z AUTO 23008KT 10SM CLR 27/24 A2992 RMK AO2 T02670241 403280257
KFHB 190635Z AUTO 24006KT 10SM CLR 27/24 A2993 RMK AO2 T02670241
KFHB 190615Z AUTO 23008KT 10SM CLR 27/24 A2993 RMK AO2 T02680241
KFHB 190555Z AUTO 23008KT 10SM CLR 27/24 A2994 RMK AO2 T02700243 10281 20268
KFHB 190535Z AUTO 23007KT 10SM CLR 27/24 A2994 RMK AO2 T02700240
KFHB 190515Z AUTO 23006KT 10SM CLR 27/24 A2995 RMK AO2 LTG DSNT NE T02700241
KFHB 190455Z AUTO 23007KT 10SM CLR 27/24 A2995 RMK AO2 T02700240
KFHB 190435Z AUTO 24006KT 10SM CLR 27/24 A2995 RMK AO2 T02700241
KFHB 190415Z AUTO 24006KT 10SM CLR 27/24 A2995 RMK AO2 T02710240
KFHB 190355Z AUTO 24006KT 10SM CLR 27/24 A2994 RMK AO2 T02710241
KFHB 190335Z AUTO 23007KT 10SM CLR 27/24 A2994 RMK AO2 LTG DSNT NE T02720241
KFHB 190315Z AUTO 23007KT 10SM CLR 27/24 A2993 RMK AO2 T02730240
KFHB 190255Z AUTO 24007KT 10SM CLR 27/24 A2994 RMK AO2 T02710240
KFHB 190235Z AUTO 23006KT 10SM CLR 27/24 A2994 RMK AO2 T02700240
KFHB 190215Z AUTO 23007KT 10SM CLR 27/24 A2994 RMK AO2 T02700240
KFHB 190155Z AUTO 23005KT 10SM CLR 27/24 A2994 RMK AO2 T02720240
KFHB 190135Z AUTO 23007KT 10SM CLR 27/24 A2993 RMK AO2 T02740237
KFHB 190115Z AUTO 23007KT 10SM CLR 28/24 A2993 RMK AO2 T02750235
KFHB 190055Z AUTO 24005KT 10SM CLR 27/23 A2992 RMK AO2 LTG DSNT NW T02740233
KFHB 190035Z AUTO 24004KT 10SM CLR 28/23 A2991 RMK AO2 T02770231
KFHB 190015Z AUTO 24006KT 10SM CLR 28/23 A2990 RMK AO2 T02800229
KFHB 182355Z AUTO 22008KT 10SM CLR 28/23 A2990 RMK AO2 T02820226 10328 20282
KFHB 182335Z AUTO 23009KT 10SM CLR 29/23 A2991 RMK AO2 T02860228
KFHB 182315Z AUTO 23010KT 10SM CLR 29/23 A2991 RMK AO2 T02920226
KFHB 182255Z AUTO 24009KT 10SM SCT028 SCT034 31/23 A2992 RMK AO2 T03050234
KFHB 182235Z AUTO 24011KT 10SM SCT030 SCT037 31/24 A2991 RMK AO2 T03100240
KFHB 182215Z AUTO 23011KT 10SM SCT028 32/24 A2992 RMK AO2 LTG DSNT SW T03150243
KFHB 182155Z AUTO 22011G15KT 10SM CLR 32/24 A2991 RMK AO2 LTG DSNT SW AND W T03180242
KFHB 182135Z AUTO 22010KT 10SM CLR 32/24 A2991 RMK AO2 LTG DSNT SW T03180242
KFHB 182115Z AUTO 23009KT 10SM CLR 31/24 A2992 RMK AO2 LTG DSNT SW T03140241
KFHB 182055Z AUTO 23013G16KT 10SM CLR 31/24 A2992 RMK AO2 T03070237
KFHB 182035Z AUTO 23011KT 10SM CLR 31/24 A2992 RMK AO2 LTG DSNT SW T03070237
KFHB 182015Z AUTO 22009KT 10SM CLR 31/24 A2993 RMK AO2 T03050239
KFHB 181955Z AUTO 24010KT 10SM CLR 30/23 A2994 RMK AO2 T03000232
KFHB 181935Z AUTO 22014G17KT 10SM CLR 30/23 A2995 RMK AO2 T03030227
KFHB 181915Z AUTO 21011G16KT 10SM CLR 30/23 A2996 RMK AO2 LTG DSNT E AND W T02970227
KFHB 181855Z AUTO 20010KT 10SM TS SCT049 30/23 A2995 RMK AO2 LTG DSNT ALQS T03010229
KFHB 181835Z AUTO 23014KT 10SM SCT035 SCT046 SCT050 31/23 A2995 RMK AO2 LTG DSNT SE THRU SW T03090234
KFHB 181815Z AUTO 22003KT 10SM VCTS CLR 32/24 A2995 RMK AO2 LTG DSNT S T03220236
KFHB 181755Z AUTO 29005KT 10SM SCT031 SCT038 SCT047 33/24 A2996 RMK AO2 LTG DSNT S AND SW T03260240 10327 20265
KFHB 181735Z AUTO 26005KT 10SM SCT031 BKN041 BKN060 32/24 A2996 RMK AO2 LTG DSNT SE THRU SW T03160236
KFHB 181715Z AUTO 28006KT 10SM SCT031 SCT043 SCT065 31/23 A2997 RMK AO2 LTG DSNT SE AND S T03140233
KFHB 181656Z AUTO 25005KT 10SM SCT029 SCT034 32/24 A2998 RMK AO2 LTG DSNT S T03190243
KFHB 181635Z AUTO 27004KT 10SM CLR 31/24 A2998 RMK AO2 T03140239
KFHB 181615Z AUTO 25006KT 10SM SCT025 SCT036 31/24 A2999 RMK AO2 T03100236
KFHB 181555Z AUTO 25008KT 10SM SCT025 31/24 A2999 RMK AO2 T03100238
KFHB 181535Z AUTO 24006KT 10SM SCT025 31/24 A3000 RMK AO2 LTG DSNT E T03100241
KFHB 181515Z AUTO 25006KT 10SM SCT023 30/24 A3000 RMK AO2 T03000236
KFHB 181455Z AUTO 27006KT 10SM CLR 30/24 A3000 RMK AO2 T02970235
KFHB 181435Z AUTO 27010KT 10SM CLR 30/24 A3000 RMK AO2 T02970237
KFHB 181415Z AUTO 28010KT 10SM SCT018 SCT029 29/24 A2999 RMK AO2 T02940239
KFHB 181355Z AUTO 28010KT 10SM SCT015 SCT020 29/24 A3000 RMK AO2 T02910242
KFHB 181335Z AUTO 27009KT 10SM SCT013 29/24 A2999 RMK AO2 T02880244
KFHB 181315Z AUTO 25007KT 10SM SCT011 SCT028 28/24 A3000 RMK AO2 T02810243
KFHB 181255Z AUTO 26007KT 10SM CLR 28/24 A3000 RMK AO2 T02810243
KFHB 181235Z AUTO 26007KT 10SM CLR 27/24 A3000 RMK AO2 T02740243
KFHB 181215Z AUTO 24006KT 10SM CLR 27/24 A2999 RMK AO2 T02670243
KFHB 181155Z AUTO 25006KT 10SM CLR 27/24 A3000 RMK AO2 T02650243 10266 20257
KFHB 181135Z AUTO 25004KT 10SM CLR 26/24 A2999 RMK AO2 LTG DSNT NE T02600241
KFHB 181115Z AUTO 26005KT 10SM CLR 26/24 A2998 RMK AO2 T02580241
KFHB 181055Z AUTO 25005KT 10SM CLR 26/24 A2998 RMK AO2 T02580241
KFHB 181035Z AUTO 24007KT 10SM CLR 26/24 A2997 RMK AO2 T02600242
KFHB 181015Z AUTO 25006KT 10SM CLR 26/24 A2997 RMK AO2 T02600242
KFHB 180955Z AUTO 24005KT 10SM SCT024 26/24 A2997 RMK AO2 T02600243
KFHB 180935Z AUTO 24005KT 10SM SCT024 26/24 A2996 RMK AO2 T02610243
KFHB 180915Z AUTO 26004KT 10SM CLR 26/25 A2997 RMK AO2 T02620245
KFHB 180855Z AUTO 24005KT 10SM SCT008 26/25 A2997 RMK AO2 T02630245
KFHB 180835Z AUTO 24003KT 10SM SCT008 SCT013 26/25 A2997 RMK AO2 T02640245
KFHB 180815Z AUTO 23010KT 10SM CLR 27/25 A2997 RMK AO2 T02650246
KFHB 180755Z AUTO 22006KT 10SM CLR 27/25 A2997 RMK AO2 T02650245
KFHB 180735Z AUTO 23009KT 10SM CLR 27/25 A2997 RMK AO2 T02660246